sensor_id;sensor_type;location;lat;lon;timestamp;pressure;altitude;pressure_sealevel;temperature;humidity
56594;BME280;42474;51.660;5.824;2024-03-23T00:54:07;1009.5;;;7.8;88
56594;BME280;42474;51.660;5.824;2024-03-23T00:58:07;1009.5;;;7.7;88.5
56594;BME280;42474;51.660;5.824;2024-03-23T01:02:07;1009.6;;;7.7;88.5
56594;BME280;42474;51.660;5.824;2024-03-23T01:06:07;1009.6;;;7.7;88.5
56594;BME280;42474;51.660;5.824;2024-03-23T01:10:07;1009.6;;;7.8;88
56594;BME280;42474;51.660;5.824;2024-03-23T01:14:07;1009.5;;;7.7;88.5
56594;BME280;42474;51.660;5.824;2024-03-23T01:18:07;1009.6;;;7.6;89
56594;BME280;42474;51.660;5.824;2024-03-23T01:22:07;1009.6;;;7.6;89
56594;BME280;42474;51.660;5.824;2024-03-23T01:26:07;1009.5;;;7.6;89
56594;BME280;42474;51.660;5.824;2024-03-23T01:30:07;1009.4;;;7.5;89
56594;BME280;42474;51.660;5.824;2024-03-23T01:34:07;1009.4;;;7.6;89
56594;BME280;42474;51.660;5.824;2024-03-23T01:38:07;1009.4;;;7.6;89.5
56594;BME280;42474;51.660;5.824;2024-03-23T01:42:07;1009.3;;;7.6;89.5
56594;BME280;42474;51.660;5.824;2024-03-23T01:46:07;1009.3;;;7.6;89
56594;BME280;42474;51.660;5.824;2024-03-23T01:50:07;1009.3;;;7.6;89
56594;BME280;42474;51.660;5.824;2024-03-23T01:54:07;1009.1;;;7.6;89
56594;BME280;42474;51.660;5.824;2024-03-23T01:58:07;1009.1;;;7.5;89
56594;BME280;42474;51.660;5.824;2024-03-23T02:02:07;1009.2;;;7.4;89
56594;BME280;42474;51.660;5.824;2024-03-23T02:06:07;1009.1;;;7.4;89
56594;BME280;42474;51.660;5.824;2024-03-23T02:10:07;1009;;;7.4;88.5
56594;BME280;42474;51.660;5.824;2024-03-23T02:14:07;1009;;;7.4;88.5
56594;BME280;42474;51.660;5.824;2024-03-23T02:18:07;1009;;;7.4;88.5
56594;BME280;42474;51.660;5.824;2024-03-23T02:22:07;1009;;;7.4;88.5
56594;BME280;42474;51.660;5.824;2024-03-23T02:26:07;1009.1;;;7.3;88.5
56594;BME280;42474;51.660;5.824;2024-03-23T02:30:07;1009.1;;;7.3;88.5
56594;BME280;42474;51.660;5.824;2024-03-23T02:34:07;1009;;;7.3;88.5
56594;BME280;42474;51.660;5.824;2024-03-23T02:38:07;1009;;;7.3;88.5
56594;BME280;42474;51.660;5.824;2024-03-23T02:42:07;1008.9;;;7.3;89
56594;BME280;42474;51.660;5.824;2024-03-23T02:46:07;1008.9;;;7.3;89
56594;BME280;42474;51.660;5.824;2024-03-23T02:50:07;1008.9;;;7.3;89.5
56594;BME280;42474;51.660;5.824;2024-03-23T02:54:07;1008.9;;;7.2;89.5
56594;BME280;42474;51.660;5.824;2024-03-23T02:58:07;1009;;;7.2;89.5
56594;BME280;42474;51.660;5.824;2024-03-23T03:02:07;1008.9;;;7.2;90
56594;BME280;42474;51.660;5.824;2024-03-23T03:06:07;1008.9;;;7.2;90
56594;BME280;42474;51.660;5.824;2024-03-23T03:10:07;1008.9;;;7.2;90
56594;BME280;42474;51.660;5.824;2024-03-23T03:14:07;1008.8;;;7.2;90
56594;BME280;42474;51.660;5.824;2024-03-23T03:18:07;1008.8;;;7.2;90
56594;BME280;42474;51.660;5.824;2024-03-23T03:22:07;1008.8;;;7.1;90.5
56594;BME280;42474;51.660;5.824;2024-03-23T03:26:07;1008.9;;;7.1;91
56594;BME280;42474;51.660;5.824;2024-03-23T03:30:07;1008.9;;;7.1;91
56594;BME280;42474;51.660;5.824;2024-03-23T03:34:07;1008.9;;;7.1;91.5
56594;BME280;42474;51.660;5.824;2024-03-23T03:38:07;1008.8;;;7.1;92
56594;BME280;42474;51.660;5.824;2024-03-23T03:42:07;1008.8;;;7.1;91.5
56594;BME280;42474;51.660;5.824;2024-03-23T03:46:07;1008.7;;;7.1;92
56594;BME280;42474;51.660;5.824;2024-03-23T03:50:07;1008.7;;;7.1;92
56594;BME280;42474;51.660;5.824;2024-03-23T03:54:07;1008.7;;;7;92
56594;BME280;42474;51.660;5.824;2024-03-23T03:58:07;1008.7;;;7.1;91.5
56594;BME280;42474;51.660;5.824;2024-03-23T04:02:07;1008.7;;;7.1;91.5
56594;BME280;42474;51.660;5.824;2024-03-23T04:06:07;1008.6;;;7.1;91.5
56594;BME280;42474;51.660;5.824;2024-03-23T04:10:07;1008.6;;;7.1;91
56594;BME280;42474;51.660;5.824;2024-03-23T04:14:07;1008.6;;;7.1;91
56594;BME280;42474;51.660;5.824;2024-03-23T04:18:07;1008.7;;;7.1;91
56594;BME280;42474;51.660;5.824;2024-03-23T04:22:07;1008.7;;;7;91
56594;BME280;42474;51.660;5.824;2024-03-23T04:26:07;1008.7;;;7;91
56594;BME280;42474;51.660;5.824;2024-03-23T04:30:07;1008.6;;;7;90.5
56594;BME280;42474;51.660;5.824;2024-03-23T04:34:07;1008.7;;;6.9;90.5
56594;BME280;42474;51.660;5.824;2024-03-23T04:38:07;1008.7;;;6.8;90.5
56594;BME280;42474;51.660;5.824;2024-03-23T04:42:07;1008.7;;;6.8;90
56594;BME280;42474;51.660;5.824;2024-03-23T04:46:07;1008.7;;;6.7;89.5
56594;BME280;42474;51.660;5.824;2024-03-23T04:50:07;1008.7;;;6.6;89.5
56594;BME280;42474;51.660;5.824;2024-03-23T04:54:07;1008.7;;;6.6;89.5
56594;BME280;42474;51.660;5.824;2024-03-23T04:58:07;1008.6;;;6.5;89.5
56594;BME280;42474;51.660;5.824;2024-03-23T05:02:07;1008.7;;;6.4;89
56594;BME280;42474;51.660;5.824;2024-03-23T05:06:07;1008.6;;;6.4;89
56594;BME280;42474;51.660;5.824;2024-03-23T05:10:09;1008.6;;;6.3;89.5
56594;BME280;42474;51.660;5.824;2024-03-23T05:14:07;1008.6;;;6.3;89
56594;BME280;42474;51.660;5.824;2024-03-23T05:18:07;1008.6;;;6.2;89
56594;BME280;42474;51.660;5.824;2024-03-23T05:22:07;1008.6;;;6.2;89
56594;BME280;42474;51.660;5.824;2024-03-23T05:26:07;1008.7;;;6.1;89
56594;BME280;42474;51.660;5.824;2024-03-23T05:30:07;1008.6;;;6;89.5
56594;BME280;42474;51.660;5.824;2024-03-23T05:34:07;1008.6;;;6;89
56594;BME280;42474;51.660;5.824;2024-03-23T05:38:07;1008.6;;;5.9;89.5
56594;BME280;42474;51.660;5.824;2024-03-23T05:42:07;1008.6;;;5.8;89.5
56594;BME280;42474;51.660;5.824;2024-03-23T05:46:07;1008.6;;;5.8;89.5
56594;BME280;42474;51.660;5.824;2024-03-23T05:50:07;1008.6;;;5.8;89.5
56594;BME280;42474;51.660;5.824;2024-03-23T05:54:07;1008.6;;;5.8;89.5
56594;BME280;42474;51.660;5.824;2024-03-23T05:58:07;1008.6;;;5.7;90
56594;BME280;42474;51.660;5.824;2024-03-23T06:02:07;1008.6;;;5.7;90
56594;BME280;42474;51.660;5.824;2024-03-23T06:06:07;1008.6;;;5.8;90
56594;BME280;42474;51.660;5.824;2024-03-23T06:10:08;1008.7;;;5.8;90
56594;BME280;42474;51.660;5.824;2024-03-23T06:14:07;1008.7;;;5.8;90.5
56594;BME280;42474;51.660;5.824;2024-03-23T06:18:07;1008.7;;;5.8;90.5
56594;BME280;42474;51.660;5.824;2024-03-23T06:22:07;1008.7;;;5.9;90.5
56594;BME280;42474;51.660;5.824;2024-03-23T06:26:07;1008.7;;;6;90.5
56594;BME280;42474;51.660;5.824;2024-03-23T06:30:08;1008.7;;;6.4;90.5
56594;BME280;42474;51.660;5.824;2024-03-23T06:34:07;1008.8;;;7.9;88
56594;BME280;42474;51.660;5.824;2024-03-23T06:38:07;1008.7;;;9.6;82
56594;BME280;42474;51.660;5.824;2024-03-23T06:42:07;1008.7;;;10.9;74.5
56594;BME280;42474;51.660;5.824;2024-03-23T06:46:07;1008.7;;;11.9;70
56594;BME280;42474;51.660;5.824;2024-03-23T06:50:07;1008.6;;;12.7;65.5
56594;BME280;42474;51.660;5.824;2024-03-23T06:54:07;1008.7;;;13.3;63
56594;BME280;42474;51.660;5.824;2024-03-23T06:58:07;1008.7;;;13.4;62
56594;BME280;42474;51.660;5.824;2024-03-23T07:02:07;1008.7;;;12.5;64.5
56594;BME280;42474;51.660;5.824;2024-03-23T07:06:08;1008.7;;;11.8;67
56594;BME280;42474;51.660;5.824;2024-03-23T07:10:07;1008.7;;;10.7;68.5
56594;BME280;42474;51.660;5.824;2024-03-23T07:14:07;1008.7;;;9.7;72
56594;BME280;42474;51.660;5.824;2024-03-23T07:18:07;1008.7;;;9.1;74
56594;BME280;42474;51.660;5.824;2024-03-23T07:22:07;1008.6;;;8.6;75.5
56594;BME280;42474;51.660;5.824;2024-03-23T07:26:07;1008.6;;;8.6;77
56594;BME280;42474;51.660;5.824;2024-03-23T07:30:07;1008.7;;;8.8;77
56594;BME280;42474;51.660;5.824;2024-03-23T07:34:07;1008.7;;;8.8;77
56594;BME280;42474;51.660;5.824;2024-03-23T07:38:07;1008.7;;;8.8;77.5
56594;BME280;42474;51.660;5.824;2024-03-23T07:42:07;1008.7;;;8.8;76.5
56594;BME280;42474;51.660;5.824;2024-03-23T07:46:07;1008.7;;;8.7;76
56594;BME280;42474;51.660;5.824;2024-03-23T07:50:08;1008.6;;;8.7;76
56594;BME280;42474;51.660;5.824;2024-03-23T07:54:07;1008.7;;;8.8;73.5
56594;BME280;42474;51.660;5.824;2024-03-23T07:58:07;1008.7;;;8.6;74
56594;BME280;42474;51.660;5.824;2024-03-23T08:02:07;1008.7;;;8.8;75
56594;BME280;42474;51.660;5.824;2024-03-23T08:06:08;1008.8;;;8.9;75
56594;BME280;42474;51.660;5.824;2024-03-23T08:10:07;1008.8;;;9;76
56594;BME280;42474;51.660;5.824;2024-03-23T08:14:07;1008.8;;;9.1;76
56594;BME280;42474;51.660;5.824;2024-03-23T08:18:07;1008.7;;;9.2;76
56594;BME280;42474;51.660;5.824;2024-03-23T08:22:07;1008.8;;;9.3;76.5
56594;BME280;42474;51.660;5.824;2024-03-23T08:26:07;1008.8;;;9.3;75
56594;BME280;42474;51.660;5.824;2024-03-23T08:30:07;1008.7;;;9.3;75.5
56594;BME280;42474;51.660;5.824;2024-03-23T08:34:07;1008.7;;;9.2;74
56594;BME280;42474;51.660;5.824;2024-03-23T08:38:07;1008.7;;;9.3;76
56594;BME280;42474;51.660;5.824;2024-03-23T08:42:07;1008.7;;;9.4;74.5
56594;BME280;42474;51.660;5.824;2024-03-23T08:46:08;1008.7;;;9.5;74
56594;BME280;42474;51.660;5.824;2024-03-23T08:50:07;1008.7;;;9.5;73
56594;BME280;42474;51.660;5.824;2024-03-23T08:54:07;1008.7;;;9.7;72.5
56594;BME280;42474;51.660;5.824;2024-03-23T08:58:07;1008.7;;;9.7;72.5
56594;BME280;42474;51.660;5.824;2024-03-23T09:02:07;1008.5;;;9.7;71
56594;BME280;42474;51.660;5.824;2024-03-23T09:06:07;1008.6;;;9.5;71.5
56594;BME280;42474;51.660;5.824;2024-03-23T09:10:07;1008.7;;;9.2;69.5
56594;BME280;42474;51.660;5.824;2024-03-23T09:14:07;1008.7;;;8.9;69
56594;BME280;42474;51.660;5.824;2024-03-23T09:18:07;1008.7;;;8.8;70.5
56594;BME280;42474;51.660;5.824;2024-03-23T09:22:07;1008.7;;;8.9;70.5
56594;BME280;42474;51.660;5.824;2024-03-23T09:26:07;1008.7;;;9.3;72
56594;BME280;42474;51.660;5.824;2024-03-23T09:30:07;1008.6;;;9.5;70
56594;BME280;42474;51.660;5.824;2024-03-23T09:34:07;1008.7;;;9.3;70
56594;BME280;42474;51.660;5.824;2024-03-23T09:38:07;1008.5;;;8.8;70
56594;BME280;42474;51.660;5.824;2024-03-23T09:42:07;1008.5;;;8.4;71
56594;BME280;42474;51.660;5.824;2024-03-23T09:46:07;1008.5;;;8.2;73
56594;BME280;42474;51.660;5.824;2024-03-23T09:50:08;1008.6;;;8.1;74
56594;BME280;42474;51.660;5.824;2024-03-23T09:54:07;1008.5;;;8;76
56594;BME280;42474;51.660;5.824;2024-03-23T09:58:07;1008.5;;;8.2;78.5
56594;BME280;42474;51.660;5.824;2024-03-23T10:02:07;1008.5;;;8.5;79
56594;BME280;42474;51.660;5.824;2024-03-23T10:06:07;1008.4;;;8.8;78.5
56594;BME280;42474;51.660;5.824;2024-03-23T10:10:10;1008.4;;;9.1;77.5
56594;BME280;42474;51.660;5.824;2024-03-23T10:14:07;1008.4;;;9.5;77
56594;BME280;42474;51.660;5.824;2024-03-23T10:18:17;1008.3;;;9.8;74.5
56594;BME280;42474;51.660;5.824;2024-03-23T10:22:08;1008.3;;;10.1;71
56594;BME280;42474;51.660;5.824;2024-03-23T10:26:12;1008.4;;;10.1;68
56594;BME280;42474;51.660;5.824;2024-03-23T10:30:08;1008.4;;;9.9;70.5
56594;BME280;42474;51.660;5.824;2024-03-23T10:34:07;1008.3;;;9.9;71
56594;BME280;42474;51.660;5.824;2024-03-23T10:38:07;1008.4;;;10;72
56594;BME280;42474;51.660;5.824;2024-03-23T10:42:08;1008.3;;;10.2;65
56594;BME280;42474;51.660;5.824;2024-03-23T10:46:07;1008.3;;;10.3;65
56594;BME280;42474;51.660;5.824;2024-03-23T10:50:08;1008.3;;;10.5;63
56594;BME280;42474;51.660;5.824;2024-03-23T10:54:07;1008.4;;;10.4;62.5
56594;BME280;42474;51.660;5.824;2024-03-23T10:58:07;1008.4;;;10.4;63
56594;BME280;42474;51.660;5.824;2024-03-23T11:02:08;1008.4;;;10.3;61
56594;BME280;42474;51.660;5.824;2024-03-23T11:06:07;1008.3;;;10.1;59.5
56594;BME280;42474;51.660;5.824;2024-03-23T11:10:24;1008.3;;;10;62.5
56594;BME280;42474;51.660;5.824;2024-03-23T11:14:12;1008.3;;;10.1;64.5
56594;BME280;42474;51.660;5.824;2024-03-23T11:18:07;1008.4;;;10.2;63.5
56594;BME280;42474;51.660;5.824;2024-03-23T11:22:07;1008.3;;;10.1;63
56594;BME280;42474;51.660;5.824;2024-03-23T11:26:07;1008.3;;;10.2;63.5
56594;BME280;42474;51.660;5.824;2024-03-23T11:30:11;1008.3;;;10.5;64
56594;BME280;42474;51.660;5.824;2024-03-23T11:34:07;1008.3;;;10.8;61.5
56594;BME280;42474;51.660;5.824;2024-03-23T11:38:08;1008.7;;;10.7;62.5
56594;BME280;42474;51.660;5.824;2024-03-23T11:42:07;1008.5;;;10;65.5
56594;BME280;42474;51.660;5.824;2024-03-23T11:46:07;1008.5;;;9.5;67
56594;BME280;42474;51.660;5.824;2024-03-23T11:50:08;1008.4;;;9.2;67
56594;BME280;42474;51.660;5.824;2024-03-23T11:54:07;1008.4;;;9;67.5
56594;BME280;42474;51.660;5.824;2024-03-23T11:58:07;1008.4;;;8.9;67.5
56594;BME280;42474;51.660;5.824;2024-03-23T12:02:07;1008.4;;;9;68
56594;BME280;42474;51.660;5.824;2024-03-23T12:06:07;1008.4;;;9.2;69
56594;BME280;42474;51.660;5.824;2024-03-23T12:10:07;1008.4;;;9.6;68.5
56594;BME280;42474;51.660;5.824;2024-03-23T12:14:07;1008.4;;;9.7;64.5
56594;BME280;42474;51.660;5.824;2024-03-23T12:18:07;1008.2;;;9.3;64
56594;BME280;42474;51.660;5.824;2024-03-23T12:22:08;1008.2;;;8.9;67
56594;BME280;42474;51.660;5.824;2024-03-23T12:26:07;1008.1;;;8.6;68.5
56594;BME280;42474;51.660;5.824;2024-03-23T12:30:08;1008;;;8.5;70.5
56594;BME280;42474;51.660;5.824;2024-03-23T12:34:07;1007.9;;;8.6;72.5
56594;BME280;42474;51.660;5.824;2024-03-23T12:38:07;1007.9;;;9;73
56594;BME280;42474;51.660;5.824;2024-03-23T12:42:07;1007.9;;;9.3;71
56594;BME280;42474;51.660;5.824;2024-03-23T12:46:07;1007.9;;;9.5;69
56594;BME280;42474;51.660;5.824;2024-03-23T12:50:07;1007.9;;;9.5;66
56594;BME280;42474;51.660;5.824;2024-03-23T12:54:07;1008;;;9.5;64
56594;BME280;42474;51.660;5.824;2024-03-23T12:58:07;1008.2;;;9.3;64
56594;BME280;42474;51.660;5.824;2024-03-23T13:02:07;1008.1;;;8.8;68.5
56594;BME280;42474;51.660;5.824;2024-03-23T13:06:07;1008.2;;;8.5;71.5
56594;BME280;42474;51.660;5.824;2024-03-23T13:10:07;1008.1;;;8.2;73.5
56594;BME280;42474;51.660;5.824;2024-03-23T13:14:07;1008.1;;;8.2;77.5
56594;BME280;42474;51.660;5.824;2024-03-23T13:18:07;1008.1;;;8.6;78
56594;BME280;42474;51.660;5.824;2024-03-23T13:22:07;1008.1;;;8.9;76
56594;BME280;42474;51.660;5.824;2024-03-23T13:26:07;1008.2;;;9;74
56594;BME280;42474;51.660;5.824;2024-03-23T13:30:08;1008.2;;;9;72.5
56594;BME280;42474;51.660;5.824;2024-03-23T13:34:07;1008.1;;;8.9;71
56594;BME280;42474;51.660;5.824;2024-03-23T13:38:07;1008.1;;;8.7;72
56594;BME280;42474;51.660;5.824;2024-03-23T13:42:07;1008.1;;;8.7;72.5
56594;BME280;42474;51.660;5.824;2024-03-23T13:46:07;1008.1;;;9;74.5
56594;BME280;42474;51.660;5.824;2024-03-23T13:50:08;1008;;;9.4;72.5
56594;BME280;42474;51.660;5.824;2024-03-23T13:54:07;1008;;;9.6;70.5
56594;BME280;42474;51.660;5.824;2024-03-23T13:58:07;1007.8;;;9.7;68
56594;BME280;42474;51.660;5.824;2024-03-23T14:02:07;1007.8;;;9.6;68
56594;BME280;42474;51.660;5.824;2024-03-23T14:06:07;1007.8;;;9.5;68.5
56594;BME280;42474;51.660;5.824;2024-03-23T14:10:08;1007.8;;;9.3;68.5
56594;BME280;42474;51.660;5.824;2024-03-23T14:14:07;1007.7;;;9.2;68.5
56594;BME280;42474;51.660;5.824;2024-03-23T14:18:07;1007.7;;;9.2;69.5
56594;BME280;42474;51.660;5.824;2024-03-23T14:22:07;1007.6;;;9.4;70.5
56594;BME280;42474;51.660;5.824;2024-03-23T14:26:07;1007.6;;;9.7;69
56594;BME280;42474;51.660;5.824;2024-03-23T14:30:08;1007.5;;;9.8;68
56594;BME280;42474;51.660;5.824;2024-03-23T14:34:07;1007.5;;;9.7;67
56594;BME280;42474;51.660;5.824;2024-03-23T14:38:07;1007.5;;;9.5;67.5
56594;BME280;42474;51.660;5.824;2024-03-23T14:42:07;1007.5;;;9.6;67
56594;BME280;42474;51.660;5.824;2024-03-23T14:46:08;1007.5;;;9.5;66.5
56594;BME280;42474;51.660;5.824;2024-03-23T14:50:08;1007.4;;;9.4;66.5
56594;BME280;42474;51.660;5.824;2024-03-23T14:54:07;1007.4;;;9.4;67
56594;BME280;42474;51.660;5.824;2024-03-23T14:58:07;1007.4;;;9.3;66.5
56594;BME280;42474;51.660;5.824;2024-03-23T15:02:07;1007.3;;;9.2;66.5
56594;BME280;42474;51.660;5.824;2024-03-23T15:06:07;1007.2;;;9.1;67.5
56594;BME280;42474;51.660;5.824;2024-03-23T15:10:07;1007.1;;;9.1;68
56594;BME280;42474;51.660;5.824;2024-03-23T15:14:07;1007.1;;;9.2;67
56594;BME280;42474;51.660;5.824;2024-03-23T15:18:07;1007.2;;;9.1;67
56594;BME280;42474;51.660;5.824;2024-03-23T15:22:07;1007.3;;;8.9;66
56594;BME280;42474;51.660;5.824;2024-03-23T15:26:07;1007.4;;;8.8;66.5
56594;BME280;42474;51.660;5.824;2024-03-23T15:30:08;1007.3;;;8.6;66
56594;BME280;42474;51.660;5.824;2024-03-23T15:34:07;1007.3;;;8.5;65.5
56594;BME280;42474;51.660;5.824;2024-03-23T15:38:07;1007.3;;;8.3;65.5
56594;BME280;42474;51.660;5.824;2024-03-23T15:42:07;1007.3;;;8.3;64.5
56594;BME280;42474;51.660;5.824;2024-03-23T15:46:07;1007.3;;;8.2;65
56594;BME280;42474;51.660;5.824;2024-03-23T15:50:08;1007.3;;;8.1;64.5
56594;BME280;42474;51.660;5.824;2024-03-23T15:54:08;1007.4;;;8.1;66
56594;BME280;42474;51.660;5.824;2024-03-23T15:58:07;1007.4;;;8.1;66.5
56594;BME280;42474;51.660;5.824;2024-03-23T16:02:07;1007.3;;;8;66.5
56594;BME280;42474;51.660;5.824;2024-03-23T16:06:08;1007.3;;;8;68
56594;BME280;42474;51.660;5.824;2024-03-23T16:10:08;1007.3;;;8;67.5
56594;BME280;42474;51.660;5.824;2024-03-23T16:14:07;1007.3;;;7.9;68
56594;BME280;42474;51.660;5.824;2024-03-23T16:18:08;1007.3;;;7.8;67
56594;BME280;42474;51.660;5.824;2024-03-23T16:22:07;1007.3;;;7.8;68
56594;BME280;42474;51.660;5.824;2024-03-23T16:26:07;1007.3;;;7.8;69
56594;BME280;42474;51.660;5.824;2024-03-23T16:30:08;1007.3;;;7.8;69
56594;BME280;42474;51.660;5.824;2024-03-23T16:34:07;1007.3;;;7.6;69.5
56594;BME280;42474;51.660;5.824;2024-03-23T16:38:07;1007.2;;;7.5;69.5
56594;BME280;42474;51.660;5.824;2024-03-23T16:42:07;1007.2;;;7.5;70
56594;BME280;42474;51.660;5.824;2024-03-23T16:46:08;1007.2;;;7.5;70
56594;BME280;42474;51.660;5.824;2024-03-23T16:50:08;1007.1;;;7.4;70.5
56594;BME280;42474;51.660;5.824;2024-03-23T16:54:07;1007.1;;;7.4;70.5
56594;BME280;42474;51.660;5.824;2024-03-23T16:58:07;1007;;;7.4;70.5
56594;BME280;42474;51.660;5.824;2024-03-23T17:02:07;1007;;;7.2;70.5
56594;BME280;42474;51.660;5.824;2024-03-23T17:06:07;1007;;;7.1;71
56594;BME280;42474;51.660;5.824;2024-03-23T17:10:08;1006.9;;;7;71
56594;BME280;42474;51.660;5.824;2024-03-23T17:14:08;1006.9;;;6.9;72
56594;BME280;42474;51.660;5.824;2024-03-23T17:18:07;1006.8;;;6.9;71.5
56594;BME280;42474;51.660;5.824;2024-03-23T17:22:07;1006.8;;;6.8;72
56594;BME280;42474;51.660;5.824;2024-03-23T17:26:07;1006.8;;;6.7;72.5
56594;BME280;42474;51.660;5.824;2024-03-23T17:30:08;1006.8;;;6.6;73.5
56594;BME280;42474;51.660;5.824;2024-03-23T17:34:07;1006.8;;;6.5;74
56594;BME280;42474;51.660;5.824;2024-03-23T17:38:08;1006.8;;;6.4;74.5
56594;BME280;42474;51.660;5.824;2024-03-23T17:42:07;1006.9;;;6.3;75.5
56594;BME280;42474;51.660;5.824;2024-03-23T17:46:07;1006.9;;;6.2;75.5
56594;BME280;42474;51.660;5.824;2024-03-23T17:50:08;1006.9;;;6.1;76
56594;BME280;42474;51.660;5.824;2024-03-23T17:54:07;1006.9;;;6.1;76.5
56594;BME280;42474;51.660;5.824;2024-03-23T17:58:07;1006.8;;;6.1;76.5
56594;BME280;42474;51.660;5.824;2024-03-23T18:02:07;1006.8;;;6;77
56594;BME280;42474;51.660;5.824;2024-03-23T18:06:07;1006.8;;;6;77.5
56594;BME280;42474;51.660;5.824;2024-03-23T18:10:08;1006.7;;;5.9;78
56594;BME280;42474;51.660;5.824;2024-03-23T18:14:08;1006.8;;;6;78
56594;BME280;42474;51.660;5.824;2024-03-23T18:18:08;1007;;;6;78
56594;BME280;42474;51.660;5.824;2024-03-23T18:22:08;1007.1;;;6;79
56594;BME280;42474;51.660;5.824;2024-03-23T18:26:08;1007.2;;;6;79.5
56594;BME280;42474;51.660;5.824;2024-03-23T18:30:08;1007.1;;;5.9;80.5
56594;BME280;42474;51.660;5.824;2024-03-23T18:34:07;1007;;;6;79.5
56594;BME280;42474;51.660;5.824;2024-03-23T18:38:08;1006.9;;;6;79.5
56594;BME280;42474;51.660;5.824;2024-03-23T18:42:07;1006.8;;;6;79
56594;BME280;42474;51.660;5.824;2024-03-23T18:46:07;1006.7;;;6;79
56594;BME280;42474;51.660;5.824;2024-03-23T18:50:07;1006.7;;;6;79
56594;BME280;42474;51.660;5.824;2024-03-23T18:54:07;1006.8;;;6.1;79.5
56594;BME280;42474;51.660;5.824;2024-03-23T18:58:08;1006.8;;;6.1;79
56594;BME280;42474;51.660;5.824;2024-03-23T19:02:08;1006.7;;;6.2;78.5
56594;BME280;42474;51.660;5.824;2024-03-23T19:06:07;1006.7;;;6.2;78.5
56594;BME280;42474;51.660;5.824;2024-03-23T19:10:08;1006.7;;;6.2;78.5
56594;BME280;42474;51.660;5.824;2024-03-23T19:14:07;1006.7;;;6.1;78.5
56594;BME280;42474;51.660;5.824;2024-03-23T19:18:08;1006.8;;;6.1;78.5
56594;BME280;42474;51.660;5.824;2024-03-23T19:22:08;1006.7;;;6;79
56594;BME280;42474;51.660;5.824;2024-03-23T19:26:08;1006.7;;;5.9;79
56594;BME280;42474;51.660;5.824;2024-03-23T19:30:08;1006.6;;;5.9;79.5
56594;BME280;42474;51.660;5.824;2024-03-23T19:34:08;1006.6;;;5.8;79.5
56594;BME280;42474;51.660;5.824;2024-03-23T19:38:08;1006.6;;;5.8;79.5
56594;BME280;42474;51.660;5.824;2024-03-23T19:42:08;1006.6;;;5.8;80
56594;BME280;42474;51.660;5.824;2024-03-23T19:46:08;1006.6;;;5.7;80
56594;BME280;42474;51.660;5.824;2024-03-23T19:50:08;1006.6;;;5.7;80.5
56594;BME280;42474;51.660;5.824;2024-03-23T19:54:08;1006.6;;;5.7;80.5
56594;BME280;42474;51.660;5.824;2024-03-23T19:58:08;1006.7;;;5.7;80.5
56594;BME280;42474;51.660;5.824;2024-03-23T20:02:08;1006.6;;;5.6;80.5
56594;BME280;42474;51.660;5.824;2024-03-23T20:06:08;1006.6;;;5.5;81.5
56594;BME280;42474;51.660;5.824;2024-03-23T20:10:08;1006.6;;;5.5;81.5
56594;BME280;42474;51.660;5.824;2024-03-23T20:14:08;1006.5;;;5.5;81.5
56594;BME280;42474;51.660;5.824;2024-03-23T20:18:08;1006.4;;;5.5;81.5
56594;BME280;42474;51.660;5.824;2024-03-23T20:22:08;1006.4;;;5.5;81.5
56594;BME280;42474;51.660;5.824;2024-03-23T20:26:08;1006.4;;;5.4;82
56594;BME280;42474;51.660;5.824;2024-03-23T20:30:08;1006.3;;;5.4;81.5
56594;BME280;42474;51.660;5.824;2024-03-23T20:34:08;1006.3;;;5.3;82.5
56594;BME280;42474;51.660;5.824;2024-03-23T20:38:08;1006.3;;;5.3;83
56594;BME280;42474;51.660;5.824;2024-03-23T20:42:08;1006.3;;;5.2;83
56594;BME280;42474;51.660;5.824;2024-03-23T20:46:08;1006.3;;;5.2;83
56594;BME280;42474;51.660;5.824;2024-03-23T20:50:08;1006.4;;;5.2;83
56594;BME280;42474;51.660;5.824;2024-03-23T20:54:08;1006.3;;;5.2;82.5
56594;BME280;42474;51.660;5.824;2024-03-23T20:58:08;1006.3;;;5.2;83
56594;BME280;42474;51.660;5.824;2024-03-23T21:02:08;1006.3;;;5.1;83
56594;BME280;42474;51.660;5.824;2024-03-23T21:06:08;1006.2;;;5.1;83
56594;BME280;42474;51.660;5.824;2024-03-23T21:10:08;1006.2;;;5.1;83
56594;BME280;42474;51.660;5.824;2024-03-23T21:14:08;1006.1;;;5.1;83.5
56594;BME280;42474;51.660;5.824;2024-03-23T21:18:08;1006.2;;;5.1;83
56594;BME280;42474;51.660;5.824;2024-03-23T21:22:08;1006.1;;;5.1;82.5
56594;BME280;42474;51.660;5.824;2024-03-23T21:26:08;1006.1;;;5.1;83
56594;BME280;42474;51.660;5.824;2024-03-23T21:30:08;1006.1;;;5;82.5
56594;BME280;42474;51.660;5.824;2024-03-23T21:34:08;1006;;;5;83
56594;BME280;42474;51.660;5.824;2024-03-23T21:38:08;1006;;;4.9;83
56594;BME280;42474;51.660;5.824;2024-03-23T21:42:08;1005.9;;;4.9;83
56594;BME280;42474;51.660;5.824;2024-03-23T21:46:08;1005.9;;;4.8;83.5
56594;BME280;42474;51.660;5.824;2024-03-23T21:50:08;1005.9;;;4.8;83.5
56594;BME280;42474;51.660;5.824;2024-03-23T21:54:08;1005.8;;;4.8;83.5
56594;BME280;42474;51.660;5.824;2024-03-23T21:58:08;1005.8;;;4.8;83.5
56594;BME280;42474;51.660;5.824;2024-03-23T22:02:08;1005.7;;;4.8;83.5
56594;BME280;42474;51.660;5.824;2024-03-23T22:06:08;1005.6;;;4.8;83
56594;BME280;42474;51.660;5.824;2024-03-23T22:10:08;1005.6;;;4.8;83
56594;BME280;42474;51.660;5.824;2024-03-23T22:14:08;1005.6;;;4.8;83
56594;BME280;42474;51.660;5.824;2024-03-23T22:18:08;1005.6;;;4.8;83
56594;BME280;42474;51.660;5.824;2024-03-23T22:22:08;1005.6;;;4.8;83
56594;BME280;42474;51.660;5.824;2024-03-23T22:26:08;1005.5;;;4.7;83.5
56594;BME280;42474;51.660;5.824;2024-03-23T22:30:08;1005.4;;;4.7;83.5
56594;BME280;42474;51.660;5.824;2024-03-23T22:34:08;1005.4;;;4.7;83.5
56594;BME280;42474;51.660;5.824;2024-03-23T22:38:08;1005.3;;;4.7;84
56594;BME280;42474;51.660;5.824;2024-03-23T22:42:08;1005.3;;;4.7;84
56594;BME280;42474;51.660;5.824;2024-03-23T22:46:08;1005.3;;;4.7;84
56594;BME280;42474;51.660;5.824;2024-03-23T22:54:08;1005.1;;;4.7;84.5
56594;BME280;42474;51.660;5.824;2024-03-23T22:58:08;1005;;;4.7;84.5
56594;BME280;42474;51.660;5.824;2024-03-23T23:02:08;1004.9;;;4.7;85
56594;BME280;42474;51.660;5.824;2024-03-23T23:06:08;1004.9;;;4.8;85
56594;BME280;42474;51.660;5.824;2024-03-23T23:10:08;1004.8;;;4.8;85
56594;BME280;42474;51.660;5.824;2024-03-23T23:14:08;1004.7;;;4.8;85.5
56594;BME280;42474;51.660;5.824;2024-03-23T23:18:08;1004.7;;;4.8;86
56594;BME280;42474;51.660;5.824;2024-03-23T23:22:08;1004.6;;;4.9;86.5
56594;BME280;42474;51.660;5.824;2024-03-23T23:26:08;1004.6;;;4.9;86.5
56594;BME280;42474;51.660;5.824;2024-03-23T23:30:08;1004.6;;;4.9;86.5
56594;BME280;42474;51.660;5.824;2024-03-23T23:34:08;1004.5;;;4.9;87
56594;BME280;42474;51.660;5.824;2024-03-23T23:38:08;1004.5;;;4.9;87
56594;BME280;42474;51.660;5.824;2024-03-23T23:42:08;1004.4;;;4.9;87.5
56594;BME280;42474;51.660;5.824;2024-03-23T23:46:08;1004.4;;;5;87.5
56594;BME280;42474;51.660;5.824;2024-03-23T23:50:08;1004.4;;;5;88
56594;BME280;42474;51.660;5.824;2024-03-23T23:54:08;1004.4;;;5;88
56594;BME280;42474;51.660;5.824;2024-03-23T23:58:08;1004.3;;;5.1;88
